createdAt,value
2019-01-08T00:02:00.770Z,100494.63
2019-01-08T00:04:28.760Z,100483.98
2019-01-08T00:06:59.939Z,100473.36
2019-01-08T00:09:28.945Z,100467.44
2019-01-08T00:11:57.526Z,100461.48
2019-01-08T00:14:25.618Z,100456.35
2019-01-08T00:16:53.755Z,100455.11
2019-01-08T00:19:21.753Z,100453.03
2019-01-08T00:21:50.252Z,100452.65
2019-01-08T00:24:18.363Z,100450.56
2019-01-08T00:26:46.334Z,100462.11
2019-01-08T00:29:14.254Z,100460.84
2019-01-08T00:31:42.245Z,100447.56
2019-01-08T00:34:11.381Z,100443.77
2019-01-08T00:36:40.241Z,100436.55
2019-01-08T00:39:08.190Z,100436.97
2019-01-08T00:41:36.301Z,100424.20
2019-01-08T00:44:04.301Z,100428.48
2019-01-08T00:46:32.803Z,100429.86
2019-01-08T00:49:00.832Z,100433.41
2019-01-08T00:51:29.177Z,100421.44
2019-01-08T00:53:57.418Z,100421.00
2019-01-08T00:56:26.411Z,100421.44
2019-01-08T00:58:54.434Z,100424.01
2019-01-08T01:01:22.412Z,100413.75
2019-01-08T01:03:50.748Z,100414.19
2019-01-08T01:06:20.370Z,100417.55
2019-01-08T01:08:48.320Z,100414.45
2019-01-08T01:11:17.181Z,100422.95
2019-01-08T01:13:45.709Z,100414.84
2019-01-08T01:16:13.620Z,100407.25
2019-01-08T01:18:41.910Z,100407.25
2019-01-08T01:21:10.049Z,100406.81
2019-01-08T01:23:38.437Z,100405.19
2019-01-08T01:26:09.399Z,100401.76
2019-01-08T01:28:40.630Z,100407.75
2019-01-08T01:31:08.527Z,100400.86
2019-01-08T01:33:36.935Z,100398.80
2019-01-08T01:36:04.876Z,100392.36
2019-01-08T01:38:33.868Z,100390.63
2019-01-08T01:41:02.463Z,100389.73
2019-01-08T01:43:30.894Z,100386.77
2019-01-08T01:45:58.783Z,100386.30
2019-01-08T01:48:27.070Z,100383.80
2019-01-08T01:50:56.025Z,100386.80
2019-01-08T01:53:24.371Z,100386.36
2019-01-08T01:55:52.372Z,100380.81
2019-01-08T01:58:23.316Z,100383.37
2019-01-08T02:00:51.357Z,100377.81
2019-01-08T02:03:21.013Z,100369.80
2019-01-08T02:05:49.007Z,100364.57
2019-01-08T02:08:17.313Z,100368.91
2019-01-08T02:10:46.680Z,100366.36
2019-01-08T02:13:15.339Z,100362.08
2019-01-08T02:15:43.446Z,100370.22
2019-01-08T02:18:11.471Z,100360.33
2019-01-08T02:20:39.986Z,100362.92
2019-01-08T02:23:08.642Z,100354.75
2019-01-08T02:25:36.845Z,100359.07
2019-01-08T02:28:04.954Z,100354.37
2019-01-08T02:30:33.293Z,100355.69
2019-01-08T02:33:01.301Z,100351.31
2019-01-08T02:35:29.288Z,100346.61
2019-01-08T02:37:57.275Z,100346.61
2019-01-08T02:40:25.674Z,100344.05
2019-01-08T02:42:54.673Z,100344.44
2019-01-08T02:45:22.736Z,100341.83
2019-01-08T02:47:50.649Z,100335.03
2019-01-08T02:50:18.682Z,100335.95
2019-01-08T02:52:47.622Z,100323.16
2019-01-08T02:55:16.747Z,100320.96
2019-01-08T02:57:44.667Z,100324.78
2019-01-08T03:00:13.058Z,100310.67
2019-01-08T03:02:42.076Z,100312.36
2019-01-08T03:05:10.084Z,100309.39
2019-01-08T03:07:38.937Z,100301.70
2019-01-08T03:10:07.586Z,100292.67
2019-01-08T03:12:35.815Z,100289.25
2019-01-08T03:15:06.351Z,100284.94
2019-01-08T03:17:38.050Z,100271.69
2019-01-08T03:20:06.391Z,100267.41
2019-01-08T03:22:34.411Z,100280.25
2019-01-08T03:25:05.793Z,100278.52
2019-01-08T03:27:34.082Z,100279.39
2019-01-08T03:30:05.659Z,100266.11
2019-01-08T03:32:34.688Z,100249.37
2019-01-08T03:35:02.817Z,100257.97
2019-01-08T03:37:31.046Z,100251.55
2019-01-08T03:39:59.817Z,100241.63
2019-01-08T03:42:28.606Z,100239.92
2019-01-08T03:44:56.530Z,100205.16
2019-01-08T03:47:24.652Z,100195.73
2019-01-08T03:49:52.608Z,100205.16
2019-01-08T03:52:22.149Z,100209.47
2019-01-08T03:54:52.620Z,100206.91
2019-01-08T03:57:21.334Z,100206.47
2019-01-08T03:59:49.325Z,100199.59
2019-01-08T04:02:17.756Z,100184.58
2019-01-08T04:04:55.370Z,100182.87
2019-01-08T04:07:23.588Z,100173.47
2019-01-08T04:09:52.138Z,100176.47
2019-01-08T04:12:20.112Z,100166.16
2019-01-08T04:14:48.352Z,100156.71
2019-01-08T04:17:16.499Z,100162.25
2019-01-08T04:19:44.988Z,100149.39
2019-01-08T04:22:13.346Z,100131.39
2019-01-08T04:24:41.553Z,100132.64
2019-01-08T04:27:09.928Z,100126.22
2019-01-08T04:29:50.197Z,100119.83
2019-01-08T04:32:11.556Z,100120.69
2019-01-08T04:34:39.952Z,100105.67
2019-01-08T04:37:08.037Z,100094.92
2019-01-08T04:39:36.040Z,100086.38
2019-01-08T04:42:04.233Z,100095.35
2019-01-08T04:44:32.702Z,100096.21
2019-01-08T04:47:01.840Z,100105.17
2019-01-08T04:49:29.923Z,100090.58
2019-01-08T04:51:57.844Z,100090.16
2019-01-08T04:54:26.855Z,100083.30
2019-01-08T04:56:54.824Z,100071.31
2019-01-08T04:59:24.675Z,100085.45
2019-01-08T05:01:52.927Z,100077.33
2019-01-08T05:04:21.754Z,100079.03
2019-01-08T05:06:50.142Z,100081.58
2019-01-08T05:09:18.419Z,100078.17
2019-01-08T05:11:46.884Z,100093.58
2019-01-08T05:14:14.909Z,100072.64
2019-01-08T05:16:43.216Z,100060.17
2019-01-08T05:19:12.365Z,100066.63
2019-01-08T05:21:41.935Z,100061.06
2019-01-08T05:24:10.668Z,100049.89
2019-01-08T05:26:40.020Z,100053.73
2019-01-08T05:29:10.924Z,100050.30
2019-01-08T05:31:38.888Z,100053.28
2019-01-08T05:34:06.885Z,100046.43
2019-01-08T05:36:35.474Z,100039.94
2019-01-08T05:39:04.621Z,100044.13
2019-01-08T05:41:32.681Z,100045.38
2019-01-08T05:44:01.784Z,100054.77
2019-01-08T05:46:30.281Z,100036.81
2019-01-08T05:48:58.287Z,100038.09
2019-01-08T05:51:27.724Z,100026.53
2019-01-08T05:53:59.872Z,100021.39
2019-01-08T05:56:28.232Z,100025.68
2019-01-08T05:58:56.226Z,100028.34
2019-01-08T06:01:24.158Z,100033.08
2019-01-08T06:03:52.611Z,100032.23
2019-01-08T06:06:20.989Z,100010.43
2019-01-08T06:08:48.991Z,100019.00
2019-01-08T06:11:16.993Z,100020.71
2019-01-08T06:13:45.510Z,100007.43
2019-01-08T06:16:13.535Z,99995.03
2019-01-08T06:18:41.478Z,99994.19
2019-01-08T06:21:10.713Z,99992.54
2019-01-08T06:23:39.555Z,99995.05
2019-01-08T06:26:07.547Z,99993.80
2019-01-08T06:28:36.232Z,99999.41
2019-01-08T06:31:07.236Z,99995.52
2019-01-08T06:33:35.243Z,100005.41
2019-01-08T06:36:03.333Z,99991.27
2019-01-08T06:38:31.704Z,99990.81
2019-01-08T06:40:59.649Z,99995.95
2019-01-08T06:43:31.139Z,99996.34
2019-01-08T06:45:59.183Z,99993.32
2019-01-08T06:48:27.955Z,99992.91
2019-01-08T06:51:02.033Z,99983.48
2019-01-08T06:53:30.816Z,99985.63
2019-01-08T06:55:58.891Z,99991.63
2019-01-08T06:58:28.022Z,99972.43
2019-01-08T07:00:56.021Z,99980.98
2019-01-08T07:03:24.022Z,99978.44
2019-01-08T07:05:55.541Z,99969.00
2019-01-08T07:08:23.490Z,99967.71
2019-01-08T07:10:51.464Z,99975.88
2019-01-08T07:13:20.926Z,99968.19
2019-01-08T07:15:49.599Z,99964.32
2019-01-08T07:18:17.658Z,99961.74
2019-01-08T07:20:45.813Z,99963.90
2019-01-08T07:23:13.802Z,99975.44
2019-01-08T07:25:42.601Z,99960.46
2019-01-08T07:28:11.191Z,99947.19
2019-01-08T07:30:41.741Z,99948.48
2019-01-08T07:33:09.151Z,99953.64
2019-01-08T07:35:37.546Z,99946.38
2019-01-08T07:38:05.673Z,99945.97
2019-01-08T07:40:35.373Z,99942.95
2019-01-08T07:43:03.778Z,99941.66
2019-01-08T07:45:32.244Z,99933.50
2019-01-08T07:48:00.360Z,99925.79
2019-01-08T07:50:31.264Z,99937.34
2019-01-08T07:53:00.139Z,99927.08
2019-01-08T07:55:28.198Z,99917.69
2019-01-08T07:57:56.483Z,99915.13
2019-01-08T08:00:25.463Z,99918.98
2019-01-08T08:02:53.758Z,99909.98
2019-01-08T08:05:30.988Z,99913.83
2019-01-08T08:07:59.609Z,99905.26
2019-01-08T08:10:27.648Z,99906.56
2019-01-08T08:12:55.827Z,99905.26
2019-01-08T08:15:24.021Z,99901.41
2019-01-08T08:17:53.579Z,99894.98
2019-01-08T08:20:24.910Z,99888.98
2019-01-08T08:22:55.920Z,99886.02
2019-01-08T08:25:24.516Z,99889.43
2019-01-08T08:27:52.526Z,99887.27
2019-01-08T08:30:20.512Z,99877.00
2019-01-08T08:32:49.165Z,99867.15
2019-01-08T08:35:20.852Z,99875.70
2019-01-08T08:37:49.268Z,99874.41
2019-01-08T08:40:17.386Z,99862.39
2019-01-08T08:42:46.127Z,99882.07
2019-01-08T08:45:14.399Z,99882.93
2019-01-08T08:47:42.929Z,99870.54
2019-01-08T08:50:11.843Z,99870.94
2019-01-08T08:52:40.156Z,99872.58
2019-01-08T08:55:08.154Z,99865.70
2019-01-08T08:57:36.864Z,99869.96
2019-01-08T09:00:07.112Z,99866.58
2019-01-08T09:02:35.293Z,99863.99
2019-01-08T09:05:03.892Z,99886.24
2019-01-08T09:07:32.022Z,99874.27
2019-01-08T09:09:59.980Z,99886.20
2019-01-08T09:12:28.328Z,99875.06
2019-01-08T09:14:57.583Z,99879.77
2019-01-08T09:17:25.663Z,99861.77
2019-01-08T09:19:53.873Z,99866.91
2019-01-08T09:22:22.400Z,99867.33
2019-01-08T09:24:50.881Z,99871.55
2019-01-08T09:27:19.331Z,99873.25
2019-01-08T09:29:49.103Z,99859.98
2019-01-08T09:32:19.384Z,99860.41
2019-01-08T09:34:47.329Z,99862.56
2019-01-08T09:37:15.512Z,99857.45
2019-01-08T09:39:44.086Z,99855.71
2019-01-08T09:42:12.563Z,99859.13
2019-01-08T09:44:40.562Z,99858.71
2019-01-08T09:47:08.535Z,99864.25
2019-01-08T09:49:36.749Z,99861.73
2019-01-08T09:52:05.378Z,99856.17
2019-01-08T09:54:34.256Z,99867.31
2019-01-08T09:57:02.363Z,99863.89
2019-01-08T09:59:32.436Z,99863.45
2019-01-08T10:02:01.846Z,99857.92
2019-01-08T10:04:30.544Z,99867.38
2019-01-08T10:06:58.782Z,99860.06
2019-01-08T10:09:26.851Z,99860.09
2019-01-08T10:11:55.399Z,99859.69
2019-01-08T10:14:23.533Z,99853.27
2019-01-08T10:16:51.527Z,99854.59
2019-01-08T10:19:19.506Z,99860.16
2019-01-08T10:21:47.755Z,99851.23
2019-01-08T10:24:15.822Z,99860.66
2019-01-08T10:26:43.777Z,99849.56
2019-01-08T10:29:12.975Z,99840.16
2019-01-08T10:31:41.426Z,99840.19
2019-01-08T10:34:13.853Z,99837.20
2019-01-08T10:36:41.819Z,99822.65
2019-01-08T10:39:12.611Z,99823.09
2019-01-08T10:41:44.059Z,99819.66
2019-01-08T10:44:12.280Z,99820.95
2019-01-08T10:46:40.510Z,99823.97
2019-01-08T10:49:08.533Z,99817.09
2019-01-08T10:51:37.120Z,99821.39
2019-01-08T10:54:06.293Z,99819.66
2019-01-08T10:56:37.285Z,99817.09
2019-01-08T10:59:07.677Z,99817.11
2019-01-08T11:01:40.776Z,99815.41
2019-01-08T11:04:06.630Z,99813.69
2019-01-08T11:06:34.794Z,99808.55
2019-01-08T11:09:04.054Z,99825.25
2019-01-08T11:11:34.399Z,99812.41
2019-01-08T11:14:02.872Z,99811.96
2019-01-08T11:16:30.859Z,99828.68
2019-01-08T11:18:58.875Z,99825.25
2019-01-08T11:21:27.130Z,99824.82
2019-01-08T11:23:55.259Z,99815.82
2019-01-08T11:26:23.701Z,99814.11
2019-01-08T11:28:53.413Z,99812.41
2019-01-08T11:31:23.423Z,99819.27
2019-01-08T11:33:51.643Z,99808.98
2019-01-08T11:36:19.606Z,99829.52
2019-01-08T11:38:48.115Z,99856.10
2019-01-08T11:41:17.974Z,99852.63
2019-01-08T11:43:46.068Z,99849.20
2019-01-08T11:46:17.748Z,99847.50
2019-01-08T11:48:46.478Z,99860.38
2019-01-08T11:51:17.023Z,99838.95
2019-01-08T11:53:46.153Z,99839.36
2019-01-08T11:56:20.057Z,99847.06
2019-01-08T11:58:48.972Z,99837.23
2019-01-08T12:01:19.330Z,99835.55
2019-01-08T12:03:51.482Z,99842.39
2019-01-08T12:06:20.630Z,99831.25
2019-01-08T12:08:52.270Z,99837.66
2019-01-08T12:11:21.432Z,99849.66
2019-01-08T12:13:51.769Z,99841.52
2019-01-08T12:16:22.217Z,99848.37
2019-01-08T12:18:51.269Z,99828.66
2019-01-08T12:21:20.270Z,99828.21
2019-01-08T12:23:49.316Z,99832.50
2019-01-08T12:26:18.289Z,99830.78
2019-01-08T12:28:47.781Z,99834.64
2019-01-08T12:31:17.560Z,99830.35
2019-01-08T12:33:47.147Z,99831.25
2019-01-08T12:36:16.112Z,99827.84
2019-01-08T12:38:46.479Z,99826.09
2019-01-08T12:41:15.509Z,99826.09
2019-01-08T12:43:44.618Z,99826.09
2019-01-08T12:46:13.606Z,99816.27
2019-01-08T12:48:42.708Z,99827.40
2019-01-08T12:51:13.990Z,99841.95
2019-01-08T12:53:48.175Z,99838.95
2019-01-08T12:56:17.611Z,99843.61
2019-01-08T12:58:46.557Z,99867.51
2019-01-08T13:01:16.054Z,99847.74
2019-01-08T13:03:45.069Z,99825.94
2019-01-08T13:06:14.141Z,99822.61
2019-01-08T13:08:51.396Z,99822.22
2019-01-08T13:11:20.796Z,99825.22
2019-01-08T13:13:49.933Z,99832.90
2019-01-08T13:16:19.109Z,99837.63
2019-01-08T13:18:48.451Z,99835.46
2019-01-08T13:21:17.764Z,99834.16
2019-01-08T13:23:47.510Z,99838.85
2019-01-08T13:26:16.554Z,99842.70
2019-01-08T13:28:46.375Z,99844.41
2019-01-08T13:31:16.950Z,99850.40
2019-01-08T13:33:46.221Z,99855.97
2019-01-08T13:36:15.827Z,99853.39
2019-01-08T13:38:44.885Z,99871.80
2019-01-08T13:41:14.080Z,99861.45
2019-01-08T13:43:43.550Z,99852.46
2019-01-08T13:46:14.168Z,99861.42
2019-01-08T13:48:45.861Z,99871.23
2019-01-08T13:51:17.429Z,99861.86
2019-01-08T13:53:46.427Z,99864.42
2019-01-08T13:56:15.645Z,99882.42
2019-01-08T13:58:44.633Z,99869.58
2019-01-08T14:01:13.649Z,99878.53
2019-01-08T14:03:42.694Z,99867.44
2019-01-08T14:06:12.512Z,99876.86
2019-01-08T14:08:41.630Z,99872.09
2019-01-08T14:11:10.686Z,99890.84
2019-01-08T14:13:39.945Z,99888.30
2019-01-08T14:16:09.362Z,99879.41
2019-01-08T14:18:39.492Z,99873.52
2019-01-08T14:21:12.363Z,99876.10
2019-01-08T14:23:41.777Z,99873.55
2019-01-08T14:26:11.746Z,99882.55
2019-01-08T14:28:41.714Z,99868.02
2019-01-08T14:31:12.183Z,99879.04
2019-01-08T14:33:42.240Z,99874.70
2019-01-08T14:36:11.389Z,99883.61
2019-01-08T14:38:41.290Z,99878.02
2019-01-08T14:41:10.886Z,99900.66
2019-01-08T14:43:40.104Z,99903.18
2019-01-08T14:46:09.423Z,99897.51
2019-01-08T14:48:39.272Z,99907.64
2019-01-08T14:51:08.345Z,99890.83
2019-01-08T14:53:39.015Z,99884.86
2019-01-08T14:56:10.046Z,99899.91
2019-01-08T14:58:41.864Z,99893.16
2019-01-08T15:01:10.812Z,99884.70
2019-01-08T15:03:43.080Z,99882.50
2019-01-08T15:06:12.078Z,99871.43
2019-01-08T15:08:42.119Z,99887.21
2019-01-08T15:11:11.299Z,99871.86
2019-01-08T15:13:42.060Z,99882.17
2019-01-08T15:16:11.017Z,99887.32
2019-01-08T15:18:49.251Z,99877.45
2019-01-08T15:21:22.123Z,99887.73
2019-01-08T15:23:52.334Z,99883.45
2019-01-08T15:26:21.332Z,99889.03
2019-01-08T15:28:50.988Z,99880.05
2019-01-08T15:31:19.954Z,99873.20
2019-01-08T15:33:49.466Z,99876.20
2019-01-08T15:36:18.462Z,99881.36
2019-01-08T15:38:48.188Z,99875.42
2019-01-08T15:41:18.548Z,99875.38
2019-01-08T15:43:47.967Z,99896.73
2019-01-08T15:46:17.176Z,99909.15
2019-01-08T15:48:47.189Z,99912.15
2019-01-08T15:51:16.484Z,99920.22
2019-01-08T15:53:46.790Z,99908.27
2019-01-08T15:56:15.992Z,99903.20
2019-01-08T15:58:45.497Z,99908.29
2019-01-08T16:01:14.472Z,99901.90
2019-01-08T16:03:44.097Z,99899.72
2019-01-08T16:06:13.723Z,99894.58
2019-01-08T16:08:43.094Z,99913.39
2019-01-08T16:11:12.136Z,99911.67
2019-01-08T16:13:41.139Z,99902.70
2019-01-08T16:16:10.202Z,99905.23
2019-01-08T16:18:39.911Z,99914.59
2019-01-08T16:21:10.477Z,99918.82
2019-01-08T16:23:39.957Z,99899.69
2019-01-08T16:26:10.164Z,99900.88
2019-01-08T16:28:39.920Z,99903.84
2019-01-08T16:31:10.938Z,99907.61
2019-01-08T16:33:40.873Z,99929.77
2019-01-08T16:36:10.092Z,99955.39
2019-01-08T16:38:42.985Z,99963.44
2019-01-08T16:41:13.249Z,99967.69
2019-01-08T16:43:46.292Z,99935.76
2019-01-08T16:46:15.479Z,99943.60
2019-01-08T16:48:44.480Z,99954.07
2019-01-08T16:51:13.863Z,99952.18
2019-01-08T16:53:44.439Z,99960.39
2019-01-08T16:56:13.409Z,99961.33
2019-01-08T16:58:42.670Z,99949.92
2019-01-08T17:01:11.854Z,99945.70
2019-01-08T17:03:42.480Z,99950.00
2019-01-08T17:06:14.204Z,99958.59
2019-01-08T17:08:44.304Z,99943.77
2019-01-08T17:11:18.444Z,99939.67
2019-01-08T17:13:47.820Z,99926.97
2019-01-08T17:16:18.251Z,99940.33
2019-01-08T17:18:47.904Z,99943.24
2019-01-08T17:21:22.027Z,99944.16
2019-01-08T17:23:52.739Z,99945.42
2019-01-08T17:26:23.166Z,99948.41
2019-01-08T17:28:53.515Z,99943.28
2019-01-08T17:31:27.601Z,99936.91
2019-01-08T17:34:00.905Z,99932.34
2019-01-08T17:36:31.875Z,99934.95
2019-01-08T17:39:05.451Z,99954.19
2019-01-08T17:41:37.956Z,99948.23
2019-01-08T17:44:08.836Z,99942.92
2019-01-08T17:46:42.221Z,99941.20
2019-01-08T17:49:13.600Z,99952.27
2019-01-08T17:51:47.899Z,99974.34
2019-01-08T17:54:17.879Z,99968.70
2019-01-08T17:56:48.929Z,99975.48
2019-01-08T17:59:22.995Z,99973.79
2019-01-08T18:02:04.241Z,99983.17
2019-01-08T18:04:33.546Z,99996.81
2019-01-08T18:07:03.985Z,100004.42
2019-01-08T18:09:35.440Z,99994.06
2019-01-08T18:12:09.177Z,99996.17
2019-01-08T18:14:39.337Z,99996.17
2019-01-08T18:17:09.042Z,99991.09
2019-01-08T18:19:44.024Z,99993.76
2019-01-08T18:22:13.921Z,99986.53
2019-01-08T18:24:44.807Z,99981.97
2019-01-08T18:27:19.510Z,99982.06
2019-01-08T18:29:50.709Z,99971.81
2019-01-08T18:32:21.771Z,99983.40
2019-01-08T18:34:51.584Z,99971.87
2019-01-08T18:37:22.673Z,99965.08
2019-01-08T18:39:51.916Z,99976.15
2019-01-08T18:42:21.928Z,99971.14
2019-01-08T18:44:51.487Z,99974.50
2019-01-08T18:47:20.949Z,99981.27
2019-01-08T18:49:52.762Z,99988.10
2019-01-08T18:52:23.990Z,99990.64
2019-01-08T18:54:53.356Z,99992.83
2019-01-08T18:57:27.633Z,100000.89
2019-01-08T19:00:01.181Z,100000.48
2019-01-08T19:02:32.667Z,99996.23
2019-01-08T19:05:01.879Z,100001.31
2019-01-08T19:07:37.954Z,100013.64
2019-01-08T19:10:11.008Z,100022.23
2019-01-08T19:12:43.230Z,100029.04
2019-01-08T19:15:15.842Z,100018.73
2019-01-08T19:17:46.268Z,100020.78
2019-01-08T19:20:15.887Z,100014.37
2019-01-08T19:22:45.372Z,100021.17
2019-01-08T19:25:15.287Z,100018.61
2019-01-08T19:27:47.187Z,100010.09
2019-01-08T19:30:22.055Z,100019.48
2019-01-08T19:32:51.143Z,100012.19
2019-01-08T19:35:20.481Z,100016.89
2019-01-08T19:37:54.059Z,100022.92
2019-01-08T19:40:27.597Z,100023.84
2019-01-08T19:43:00.953Z,100018.22
2019-01-08T19:45:32.709Z,100018.20
2019-01-08T19:48:01.962Z,100017.77
2019-01-08T19:50:32.889Z,100016.87
2019-01-08T19:53:02.044Z,100011.67
2019-01-08T19:55:35.763Z,100019.83
2019-01-08T19:58:08.824Z,100019.01
2019-01-08T20:00:38.428Z,100021.57
2019-01-08T20:03:10.164Z,100025.02
2019-01-08T20:05:40.648Z,100019.03
2019-01-08T20:08:55.010Z,100013.52
2019-01-08T20:11:38.741Z,100014.35
2019-01-08T20:14:30.892Z,100005.83
2019-01-08T20:17:07.703Z,100009.67
2019-01-08T20:19:37.883Z,100011.84
2019-01-08T20:22:10.827Z,99996.94
2019-01-08T20:24:43.510Z,100016.17
2019-01-08T20:27:22.504Z,100015.25
2019-01-08T20:29:51.985Z,100019.89
2019-01-08T20:32:25.249Z,100031.84
2019-01-08T20:35:15.439Z,100038.23
2019-01-08T20:37:47.221Z,100031.75
2019-01-08T20:40:16.749Z,100028.27
2019-01-08T20:42:46.676Z,100034.65
2019-01-08T20:45:19.872Z,100023.56
2019-01-08T20:48:15.307Z,100030.87
2019-01-08T20:50:48.322Z,100025.75
2019-01-08T20:53:23.856Z,100022.29
2019-01-08T20:55:59.942Z,100015.81
2019-01-08T20:58:30.065Z,100023.02
2019-01-08T21:01:00.929Z,100022.59
2019-01-08T21:03:30.146Z,100038.77
2019-01-08T21:06:04.750Z,100033.63
2019-01-08T21:08:35.759Z,100054.55
2019-01-08T21:11:06.271Z,100060.20
2019-01-08T21:13:36.518Z,100068.73
2019-01-08T21:16:07.394Z,100058.02
2019-01-08T21:18:50.191Z,100057.00
2019-01-08T21:21:19.935Z,100049.28
2019-01-08T21:23:50.088Z,100039.38
2019-01-08T21:29:32.929Z,100043.93
2019-01-08T21:32:21.237Z,100051.38
2019-01-08T21:35:08.538Z,100050.03
2019-01-08T21:37:55.593Z,100052.23
2019-01-08T21:40:43.840Z,100058.67
2019-01-08T21:43:30.675Z,100063.82
2019-01-08T21:46:19.364Z,100061.97
2019-01-08T21:49:11.775Z,100065.29
2019-01-08T21:52:05.612Z,100071.22
2019-01-08T21:57:41.913Z,100061.37
2019-01-08T22:03:06.782Z,100068.70
2019-01-08T22:05:34.806Z,100061.97
2019-01-08T22:08:21.001Z,100058.64
2019-01-08T22:10:49.054Z,100065.92
2019-01-08T22:13:17.327Z,100073.62
2019-01-08T22:15:45.721Z,100076.20
2019-01-08T22:18:13.534Z,100067.22
2019-01-08T22:20:41.310Z,100064.84
2019-01-08T22:23:09.520Z,100063.98
2019-01-08T22:25:37.337Z,100069.85
2019-01-08T22:28:05.214Z,100066.06
2019-01-08T22:30:33.096Z,100069.41
2019-01-08T22:33:04.158Z,100062.17
2019-01-08T22:35:32.691Z,100067.31
2019-01-08T22:38:00.496Z,100067.33
2019-01-08T22:40:28.337Z,100075.45
2019-01-08T22:42:56.194Z,100081.92
2019-01-08T22:45:23.971Z,100069.04
2019-01-08T22:47:55.178Z,100073.61
2019-01-08T22:50:23.073Z,100070.53
2019-01-08T22:52:51.943Z,100063.28
2019-01-08T22:55:19.692Z,100069.19
2019-01-08T22:57:49.082Z,100073.73
2019-01-08T23:00:37.068Z,100070.09
2019-01-08T23:03:05.200Z,100076.10
2019-01-08T23:05:33.678Z,100076.67
2019-01-08T23:08:01.535Z,100078.78
2019-01-08T23:10:31.143Z,100068.14
2019-01-08T23:13:00.239Z,100068.12
2019-01-08T23:15:28.716Z,100066.75
2019-01-08T23:17:57.299Z,100054.33
2019-01-08T23:20:25.185Z,100049.55
2019-01-08T23:22:53.444Z,100052.07
2019-01-08T23:25:21.648Z,100051.27
2019-01-08T23:27:49.434Z,100064.11
2019-01-08T23:30:17.367Z,100064.88
2019-01-08T23:32:45.155Z,100050.73
2019-01-08T23:35:19.519Z,100065.02
2019-01-08T23:37:44.274Z,100062.20
2019-01-08T23:40:12.067Z,100075.89
2019-01-08T23:42:39.918Z,100073.44
2019-01-08T23:45:08.971Z,100068.65
2019-01-08T23:47:36.984Z,100058.72
2019-01-08T23:50:05.024Z,100053.16
2019-01-08T23:52:48.721Z,100061.30
2019-01-08T23:55:20.221Z,100048.41
2019-01-08T23:57:50.733Z,100052.61
